createdAt,value
2022-10-26T00:04:54.381Z,7.90
2022-10-26T00:09:57.314Z,7.98
2022-10-26T00:15:00.236Z,7.98
2022-10-26T00:20:04.978Z,7.97
2022-10-26T00:25:08.582Z,7.92
2022-10-26T00:30:11.698Z,7.93
2022-10-26T00:35:23.020Z,7.86
2022-10-26T00:40:29.746Z,7.78
2022-10-26T00:45:32.899Z,7.65
2022-10-26T00:50:43.015Z,7.69
2022-10-26T00:55:48.321Z,7.68
2022-10-26T01:00:51.723Z,7.49
2022-10-26T01:05:58.716Z,7.54
2022-10-26T01:11:02.604Z,7.46
2022-10-26T01:16:22.463Z,7.20
2022-10-26T01:21:52.874Z,7.35
2022-10-26T01:27:23.179Z,7.34
2022-10-26T01:32:33.895Z,7.26
2022-10-26T01:37:40.988Z,7.30
2022-10-26T01:42:50.931Z,7.19
2022-10-26T01:47:56.165Z,7.16
2022-10-26T01:52:59.588Z,7.15
2022-10-26T01:58:12.063Z,7.13
2022-10-26T02:03:25.155Z,7.07
2022-10-26T02:08:54.093Z,6.92
2022-10-26T02:14:06.113Z,6.79
2022-10-26T02:19:21.031Z,6.73
2022-10-26T02:24:25.856Z,6.77
2022-10-26T02:29:31.347Z,6.75
2022-10-26T02:34:38.843Z,6.86
2022-10-26T02:39:42.884Z,6.78
2022-10-26T02:44:50.351Z,6.74
2022-10-26T02:49:55.907Z,6.72
2022-10-26T02:55:04.276Z,6.76
2022-10-26T03:00:08.817Z,6.65
2022-10-26T03:05:16.919Z,6.66
2022-10-26T03:10:20.405Z,6.55
2022-10-26T03:15:23.376Z,6.49
2022-10-26T03:20:27.654Z,6.50
2022-10-26T03:25:30.700Z,6.38
2022-10-26T03:30:33.875Z,6.33
2022-10-26T03:35:38.156Z,6.31
2022-10-26T03:40:42.174Z,6.26
2022-10-26T03:45:45.084Z,6.27
2022-10-26T03:50:49.334Z,6.24
2022-10-26T03:55:52.248Z,6.21
2022-10-26T04:00:55.124Z,6.03
2022-10-26T04:06:01.706Z,6.08
2022-10-26T04:11:04.941Z,6.10
2022-10-26T04:16:08.396Z,6.00
2022-10-26T04:21:12.683Z,5.89
2022-10-26T04:26:15.597Z,5.97
2022-10-26T04:31:18.472Z,6.03
2022-10-26T04:36:22.699Z,5.66
2022-10-26T04:41:25.575Z,5.86
2022-10-26T04:46:28.467Z,5.91
2022-10-26T04:51:32.754Z,5.82
2022-10-26T04:56:35.730Z,5.78
2022-10-26T05:01:38.733Z,5.71
2022-10-26T05:06:43.108Z,5.65
2022-10-26T05:11:46.011Z,5.61
2022-10-26T05:16:48.977Z,5.60
2022-10-26T05:21:53.695Z,5.66
2022-10-26T05:26:56.691Z,5.62
2022-10-26T05:31:59.575Z,5.58
2022-10-26T05:37:03.867Z,5.67
2022-10-26T05:42:06.840Z,5.40
2022-10-26T05:47:09.740Z,5.54
2022-10-26T05:52:14.051Z,5.53
2022-10-26T05:57:17.484Z,5.59
2022-10-26T06:02:34.229Z,5.62
2022-10-26T06:07:39.160Z,5.71
2022-10-26T06:12:42.585Z,5.77
2022-10-26T06:17:56.785Z,5.85
2022-10-26T06:23:14.504Z,5.68
2022-10-26T06:33:35.412Z,5.96
2022-10-26T06:38:44.427Z,6.25
2022-10-26T06:43:47.977Z,6.90
2022-10-26T06:48:58.359Z,7.27
2022-10-26T06:54:07.977Z,7.44
2022-10-26T06:59:18.942Z,7.43
2022-10-26T07:04:21.858Z,7.70
2022-10-26T07:09:26.147Z,8.10
2022-10-26T07:14:29.046Z,8.56
2022-10-26T07:19:31.929Z,8.73
2022-10-26T07:24:43.766Z,8.96
2022-10-26T07:29:47.895Z,9.10
2022-10-26T07:34:50.820Z,9.31
2022-10-26T07:39:55.109Z,9.71
2022-10-26T07:44:58.009Z,9.69
2022-10-26T07:50:00.919Z,9.47
2022-10-26T07:55:05.802Z,9.23
2022-10-26T08:00:10.684Z,9.41
2022-10-26T08:05:13.696Z,10.01
2022-10-26T08:10:18.127Z,10.56
2022-10-26T08:15:21.285Z,11.00
2022-10-26T08:20:24.193Z,11.43
2022-10-26T08:25:28.876Z,10.69
2022-10-26T08:30:32.379Z,11.12
2022-10-26T08:35:35.622Z,11.45
2022-10-26T08:40:42.636Z,11.29
2022-10-26T08:45:51.221Z,11.24
2022-10-26T08:50:56.768Z,11.77
2022-10-26T08:56:05.619Z,11.91
2022-10-26T09:01:10.045Z,12.12
2022-10-26T09:06:22.109Z,12.14
2022-10-26T09:11:45.614Z,12.51
2022-10-26T09:17:01.399Z,11.94
2022-10-26T09:22:13.530Z,12.26
2022-10-26T09:27:23.543Z,12.41
2022-10-26T09:32:30.755Z,12.91
2022-10-26T09:37:38.529Z,13.81
2022-10-26T09:42:48.001Z,14.01
2022-10-26T09:47:53.626Z,14.63
2022-10-26T09:52:56.899Z,14.56
2022-10-26T09:58:04.992Z,14.82
2022-10-26T10:03:19.693Z,14.76
2022-10-26T10:08:24.632Z,15.23
2022-10-26T10:13:31.676Z,15.00
2022-10-26T10:18:36.157Z,15.43
2022-10-26T10:23:49.732Z,15.61
2022-10-26T10:29:03.779Z,15.62
2022-10-26T10:34:17.724Z,15.77
2022-10-26T10:39:40.384Z,15.98
2022-10-26T10:44:46.413Z,16.31
2022-10-26T10:49:54.598Z,16.44
2022-10-26T10:55:14.975Z,16.57
2022-10-26T11:00:20.864Z,16.55
2022-10-26T11:05:30.726Z,16.36
2022-10-26T11:10:38.195Z,16.61
2022-10-26T11:15:45.365Z,16.20
2022-10-26T11:20:53.240Z,15.84
2022-10-26T11:26:00.950Z,15.93
2022-10-26T11:31:13.180Z,16.18
2022-10-26T11:36:21.776Z,16.46
2022-10-26T11:41:30.703Z,16.63
2022-10-26T11:46:39.787Z,16.56
2022-10-26T11:51:46.007Z,16.66
2022-10-26T11:56:52.959Z,16.66
2022-10-26T12:02:01.426Z,16.64
2022-10-26T12:07:09.671Z,16.85
2022-10-26T12:12:21.074Z,16.87
2022-10-26T12:17:30.357Z,16.76
2022-10-26T12:22:39.806Z,16.64
2022-10-26T12:27:55.025Z,16.78
2022-10-26T12:33:01.499Z,17.04
2022-10-26T12:38:49.589Z,16.85
2022-10-26T12:43:57.587Z,17.12
2022-10-26T12:49:01.909Z,17.31
2022-10-26T12:54:19.023Z,16.82
2022-10-26T12:59:29.300Z,16.77
2022-10-26T13:05:04.107Z,16.68
2022-10-26T13:10:21.615Z,16.72
2022-10-26T13:15:28.273Z,16.63
2022-10-26T13:20:34.848Z,16.79
2022-10-26T13:25:43.941Z,17.08
2022-10-26T13:30:50.020Z,16.87
2022-10-26T13:35:57.296Z,16.63
2022-10-26T13:41:18.650Z,16.79
2022-10-26T13:46:27.589Z,16.66
2022-10-26T13:51:42.018Z,16.58
2022-10-26T13:56:58.548Z,16.22
2022-10-26T14:02:08.877Z,15.94
2022-10-26T14:07:20.934Z,15.84
2022-10-26T14:12:25.951Z,16.01
2022-10-26T14:17:28.981Z,15.82
2022-10-26T14:22:33.341Z,15.16
2022-10-26T14:27:40.544Z,15.13
2022-10-26T14:32:43.504Z,15.02
2022-10-26T14:37:52.681Z,15.21
2022-10-26T14:42:58.854Z,15.04
2022-10-26T14:48:03.317Z,15.08
2022-10-26T14:53:16.314Z,14.99
2022-10-26T14:58:26.751Z,14.91
2022-10-26T15:03:30.474Z,14.94
2022-10-26T15:08:52.657Z,14.63
2022-10-26T15:14:00.711Z,14.35
2022-10-26T15:19:10.821Z,14.41
2022-10-26T15:24:30.201Z,14.44
2022-10-26T15:29:40.037Z,14.45
2022-10-26T15:34:42.994Z,14.42
2022-10-26T15:39:47.276Z,14.28
2022-10-26T15:44:53.457Z,14.25
2022-10-26T15:49:56.359Z,14.24
2022-10-26T15:55:00.628Z,14.10
2022-10-26T16:00:04.784Z,14.04
2022-10-26T16:05:27.740Z,14.00
2022-10-26T16:10:32.090Z,13.95
2022-10-26T16:15:35.081Z,13.68
2022-10-26T16:20:38.254Z,13.77
2022-10-26T16:25:44.985Z,13.65
2022-10-26T16:30:47.923Z,13.68
2022-10-26T16:35:57.128Z,13.64
2022-10-26T16:41:06.196Z,13.52
2022-10-26T16:46:10.711Z,13.48
2022-10-26T16:51:15.645Z,13.44
2022-10-26T16:56:22.360Z,13.28
2022-10-26T17:01:25.714Z,13.30
2022-10-26T17:06:28.721Z,13.18
2022-10-26T17:11:32.976Z,13.22
2022-10-26T17:16:35.995Z,13.23
2022-10-26T17:21:38.875Z,13.18
2022-10-26T17:26:43.267Z,13.08
2022-10-26T17:31:46.160Z,12.99
2022-10-26T17:36:49.071Z,12.92
2022-10-26T17:41:53.314Z,12.96
2022-10-26T17:46:56.211Z,12.86
2022-10-26T17:51:59.063Z,12.87
2022-10-26T17:57:03.349Z,12.89
2022-10-26T18:02:06.352Z,12.82
2022-10-26T18:07:09.332Z,12.80
2022-10-26T18:12:13.837Z,12.71
2022-10-26T18:17:16.771Z,12.73
2022-10-26T18:22:19.647Z,12.71
2022-10-26T18:27:23.923Z,12.64
2022-10-26T18:32:26.808Z,12.57
2022-10-26T18:37:29.708Z,12.52
2022-10-26T18:42:33.998Z,12.54
2022-10-26T18:47:36.911Z,12.39
2022-10-26T18:52:40.003Z,12.42
2022-10-26T18:57:44.234Z,12.25
2022-10-26T19:02:52.286Z,12.26
2022-10-26T19:07:55.605Z,12.13
2022-10-26T19:13:01.197Z,12.18
2022-10-26T19:18:04.406Z,12.10
2022-10-26T19:23:07.492Z,12.01
2022-10-26T19:28:11.711Z,11.82
2022-10-26T19:33:14.671Z,11.71
2022-10-26T19:38:17.604Z,11.78
2022-10-26T19:43:21.925Z,11.70
2022-10-26T19:48:25.096Z,11.64
2022-10-26T19:53:27.987Z,11.49
2022-10-26T19:58:33.024Z,11.31
2022-10-26T20:03:36.318Z,11.30
2022-10-26T20:08:40.407Z,11.30
2022-10-26T20:13:46.001Z,11.25
2022-10-26T20:18:49.290Z,11.28
2022-10-26T20:23:52.208Z,11.31
2022-10-26T20:28:56.517Z,11.36
2022-10-26T20:33:59.392Z,11.38
2022-10-26T20:39:02.834Z,11.28
2022-10-26T20:44:15.103Z,11.23
2022-10-26T20:49:18.482Z,11.18
2022-10-26T20:54:26.914Z,11.55
2022-10-26T20:59:36.474Z,11.68
2022-10-26T21:04:39.428Z,11.82
2022-10-26T21:09:42.437Z,11.97
2022-10-26T21:14:46.691Z,12.01
2022-10-26T21:19:49.588Z,11.99
2022-10-26T21:24:52.532Z,12.05
2022-10-26T21:29:57.492Z,12.15
2022-10-26T21:35:00.507Z,12.33
2022-10-26T21:40:03.385Z,12.27
2022-10-26T21:45:09.248Z,12.21
2022-10-26T21:50:12.316Z,12.19
2022-10-26T21:55:15.319Z,12.09
2022-10-26T22:00:20.143Z,11.87
2022-10-26T22:05:23.014Z,11.64
2022-10-26T22:10:26.097Z,11.56
2022-10-26T22:15:30.364Z,11.53
2022-10-26T22:20:33.898Z,11.40
2022-10-26T22:25:36.825Z,11.46
2022-10-26T22:30:41.064Z,11.47
2022-10-26T22:35:44.622Z,11.48
2022-10-26T22:40:54.795Z,11.56
2022-10-26T22:46:03.956Z,11.58
2022-10-26T22:51:07.815Z,11.71
2022-10-26T22:56:12.689Z,11.75
2022-10-26T23:01:19.693Z,11.29
2022-10-26T23:06:23.719Z,11.26
2022-10-26T23:11:29.353Z,11.09
2022-10-26T23:16:33.699Z,11.12
2022-10-26T23:21:36.688Z,11.30
2022-10-26T23:26:39.593Z,11.74
2022-10-26T23:31:43.822Z,11.80
2022-10-26T23:36:48.028Z,11.91
2022-10-26T23:41:50.891Z,11.76
2022-10-26T23:46:55.147Z,12.11
2022-10-26T23:51:58.083Z,12.36
2022-10-26T23:57:01.091Z,12.36
